Time;durP1;ratioP1;P1;durP2;ratioP2;P2;SDS_P1;SDS_P2;PMS_P1;PMS_P2;Temp;Humidity;BMP_temperature;BMP_pressure;BME280_temperature;BME280_humidity;BME280_pressure;Samples;Min_cycle;Max_cycle;Signal;HPM_P1;HPM_P2
2021/12/23 00:00:54;;;;;;;16.75;9.98;;;;;;;;;;5093704;28;20039;-75
2021/12/23 00:03:20;;;;;;;14.05;8.45;;;;;;;;;;5111190;28;20032;-74
2021/12/23 00:05:46;;;;;;;14.35;8.82;;;;;;;;;;5095828;28;20035;-75
2021/12/23 00:08:12;;;;;;;18.63;9.10;;;;;;;;;;5098052;27;20115;-75
2021/12/23 00:10:39;;;;;;;21.60;10.18;;;;;;;;;;5109239;28;20042;-75
2021/12/23 00:13:06;;;;;;;14.65;8.95;;;;;;;;;;5098000;28;20020;-75
2021/12/23 00:15:39;;;;;;;20.40;8.80;;;;;;;;;;5088846;28;20063;-75
2021/12/23 00:23:35;;;;;;;17.65;9.70;;;;;;;;;;5104985;28;20058;-74
2021/12/23 00:26:02;;;;;;;18.80;10.27;;;;;;;;;;5089793;28;20054;-74
2021/12/23 00:28:29;;;;;;;20.48;8.77;;;;;;;;;;5111829;28;20131;-75
2021/12/23 00:30:55;;;;;;;16.92;9.30;;;;;;;;;;5084636;28;20019;-74
2021/12/23 00:33:22;;;;;;;16.15;9.50;;;;;;;;;;5104334;28;20090;-74
2021/12/23 00:35:48;;;;;;;13.52;8.57;;;;;;;;;;5109202;28;20065;-74
2021/12/23 00:38:26;;;;;;;17.25;9.75;;;;;;;;;;5101361;27;20491;-74
2021/12/23 00:40:53;;;;;;;19.60;10.07;;;;;;;;;;5109572;28;20381;-73
2021/12/23 00:43:20;;;;;;;19.23;9.43;;;;;;;;;;5100661;28;20603;-75
2021/12/23 00:45:46;;;;;;;19.20;9.75;;;;;;;;;;5108983;27;20027;-74
2021/12/23 00:48:12;;;;;;;15.15;9.10;;;;;;;;;;5104317;28;20397;-74
2021/12/23 00:50:38;;;;;;;15.68;8.73;;;;;;;;;;5106082;28;20114;-74
2021/12/23 00:53:07;;;;;;;23.02;10.13;;;;;;;;;;5105723;28;20031;-74
2021/12/23 00:55:34;;;;;;;17.23;9.23;;;;;;;;;;5110313;28;20032;-74
2021/12/23 00:58:00;;;;;;;17.00;9.15;;;;;;;;;;5081462;28;20030;-75
2021/12/23 01:00:27;;;;;;;16.10;8.90;;;;;;;;;;5090091;28;20046;-74
2021/12/23 01:02:53;;;;;;;18.40;8.95;;;;;;;;;;5078950;28;20055;-74
2021/12/23 01:05:21;;;;;;;17.50;9.35;;;;;;;;;;5081445;28;20075;-74
2021/12/23 01:07:47;;;;;;;22.85;9.55;;;;;;;;;;5098515;28;20439;-75
2021/12/23 01:10:15;;;;;;;19.33;9.25;;;;;;;;;;5105512;28;20024;-74
2021/12/23 01:12:51;;;;;;;17.02;9.52;;;;;;;;;;5116008;27;20023;-74
2021/12/23 01:17:59;;;;;;;16.23;8.70;;;;;;;;;;5110568;28;20032;-74
2021/12/23 01:20:29;;;;;;;15.13;8.73;;;;;;;;;;5104425;28;20035;-74
2021/12/23 01:22:56;;;;;;;15.02;9.70;;;;;;;;;;5107889;28;20036;-74
2021/12/23 01:25:22;;;;;;;17.88;10.05;;;;;;;;;;5098477;28;20071;-74
2021/12/23 01:27:49;;;;;;;18.48;8.82;;;;;;;;;;5100923;28;20035;-74
2021/12/23 01:30:17;;;;;;;16.42;9.18;;;;;;;;;;5106039;27;20027;-74
2021/12/23 01:32:43;;;;;;;15.63;9.35;;;;;;;;;;5103148;28;20035;-74
2021/12/23 01:35:09;;;;;;;18.33;9.45;;;;;;;;;;5096561;28;20420;-75
2021/12/23 01:37:35;;;;;;;15.38;8.80;;;;;;;;;;5101091;28;20449;-75
2021/12/23 01:40:01;;;;;;;17.15;9.35;;;;;;;;;;5081980;28;20027;-75
2021/12/23 01:42:27;;;;;;;20.92;10.93;;;;;;;;;;5106999;28;20065;-75
2021/12/23 01:44:54;;;;;;;15.38;8.07;;;;;;;;;;5105947;28;20019;-74
2021/12/23 01:47:20;;;;;;;17.25;9.02;;;;;;;;;;5102982;27;20034;-75
2021/12/23 01:49:46;;;;;;;15.77;9.18;;;;;;;;;;5110295;28;20043;-75
2021/12/23 01:52:12;;;;;;;20.17;10.02;;;;;;;;;;5101968;28;20050;-75
2021/12/23 01:54:38;;;;;;;18.02;10.70;;;;;;;;;;5092141;28;20454;-75
2021/12/23 01:57:05;;;;;;;19.85;9.07;;;;;;;;;;5099747;28;20036;-75
2021/12/23 01:59:32;;;;;;;19.05;9.52;;;;;;;;;;5101533;28;20431;-75
2021/12/23 02:01:58;;;;;;;17.17;10.63;;;;;;;;;;5105917;28;20400;-75
2021/12/23 02:04:24;;;;;;;15.07;9.00;;;;;;;;;;5089102;28;20405;-75
2021/12/23 02:06:50;;;;;;;16.48;9.18;;;;;;;;;;5094677;28;20409;-75
2021/12/23 02:09:18;;;;;;;16.33;10.85;;;;;;;;;;5082545;28;20441;-76
2021/12/23 02:11:44;;;;;;;19.42;10.38;;;;;;;;;;5107141;28;20397;-76
2021/12/23 02:14:10;;;;;;;16.67;9.88;;;;;;;;;;5100296;28;20024;-76
2021/12/23 02:16:36;;;;;;;18.95;10.55;;;;;;;;;;5103856;28;20035;-74
2021/12/23 02:19:13;;;;;;;19.77;10.45;;;;;;;;;;5095405;28;20405;-75
2021/12/23 02:21:42;;;;;;;17.25;10.50;;;;;;;;;;5089717;28;20394;-77
2021/12/23 02:24:08;;;;;;;15.48;9.68;;;;;;;;;;5100505;28;20032;-78
2021/12/23 02:26:41;;;;;;;20.13;10.90;;;;;;;;;;5104068;28;20040;-77
2021/12/23 02:29:07;;;;;;;17.92;11.02;;;;;;;;;;5100306;28;20032;-78
2021/12/23 02:31:33;;;;;;;19.75;10.18;;;;;;;;;;5107283;28;20027;-75
2021/12/23 02:33:59;;;;;;;18.05;10.15;;;;;;;;;;5098109;28;20036;-76
2021/12/23 02:36:26;;;;;;;18.05;9.18;;;;;;;;;;5083967;28;20023;-75
2021/12/23 02:38:53;;;;;;;18.35;9.80;;;;;;;;;;5091833;28;20439;-75
2021/12/23 02:41:19;;;;;;;16.17;9.93;;;;;;;;;;5098778;27;20020;-75
2021/12/23 02:43:45;;;;;;;18.90;10.05;;;;;;;;;;5095055;28;20046;-75
2021/12/23 02:46:11;;;;;;;15.93;10.10;;;;;;;;;;5080750;28;20409;-74
2021/12/23 02:48:38;;;;;;;20.45;9.63;;;;;;;;;;5103108;28;20039;-75
2021/12/23 02:51:06;;;;;;;19.05;10.85;;;;;;;;;;5101632;28;20023;-75
2021/12/23 02:53:32;;;;;;;24.05;10.73;;;;;;;;;;5104990;28;20440;-75
2021/12/23 02:55:59;;;;;;;17.42;9.07;;;;;;;;;;5077721;28;20028;-75
2021/12/23 02:58:26;;;;;;;18.00;10.90;;;;;;;;;;5077790;28;20040;-75
2021/12/23 03:00:53;;;;;;;18.23;9.25;;;;;;;;;;5100988;28;20413;-75
2021/12/23 03:03:20;;;;;;;13.65;9.52;;;;;;;;;;5098027;28;20702;-75
2021/12/23 03:05:47;;;;;;;15.77;8.77;;;;;;;;;;5102256;28;20059;-74
2021/12/23 03:08:13;;;;;;;23.88;10.13;;;;;;;;;;5107383;28;20482;-74
2021/12/23 03:10:39;;;;;;;17.45;10.50;;;;;;;;;;5098643;28;20039;-74
2021/12/23 03:13:05;;;;;;;17.08;10.50;;;;;;;;;;5108080;28;20040;-74
2021/12/23 03:15:31;;;;;;;19.58;10.50;;;;;;;;;;5097207;28;20039;-74
2021/12/23 03:17:57;;;;;;;19.40;11.05;;;;;;;;;;5105783;28;20035;-74
2021/12/23 03:20:23;;;;;;;17.42;10.65;;;;;;;;;;5108519;28;20059;-74
2021/12/23 03:22:49;;;;;;;21.75;10.63;;;;;;;;;;5098502;28;20122;-74
2021/12/23 03:25:15;;;;;;;18.70;10.25;;;;;;;;;;5097398;28;20043;-74
2021/12/23 03:27:41;;;;;;;16.25;10.55;;;;;;;;;;5098336;28;20481;-74
2021/12/23 03:30:08;;;;;;;17.60;11.15;;;;;;;;;;5092933;28;20028;-75
2021/12/23 03:32:34;;;;;;;19.92;10.82;;;;;;;;;;5101080;28;20482;-74
2021/12/23 03:35:00;;;;;;;15.50;10.40;;;;;;;;;;5098859;28;20432;-74
2021/12/23 03:37:26;;;;;;;19.63;10.93;;;;;;;;;;5096677;28;20554;-75
2021/12/23 03:39:53;;;;;;;21.20;10.63;;;;;;;;;;5099791;28;20112;-74
2021/12/23 03:42:19;;;;;;;20.20;10.85;;;;;;;;;;5096128;28;20027;-74
2021/12/23 03:44:46;;;;;;;16.30;10.25;;;;;;;;;;5078922;28;20036;-74
2021/12/23 03:47:12;;;;;;;17.58;11.32;;;;;;;;;;5106199;28;20032;-74
2021/12/23 03:49:38;;;;;;;20.85;9.77;;;;;;;;;;5104836;28;20027;-74
2021/12/23 03:52:04;;;;;;;18.45;10.48;;;;;;;;;;5084220;28;20039;-74
2021/12/23 03:54:30;;;;;;;20.38;11.00;;;;;;;;;;5099860;28;20156;-74
2021/12/23 03:56:56;;;;;;;19.17;11.00;;;;;;;;;;5104698;28;20043;-74
2021/12/23 03:59:22;;;;;;;19.63;9.90;;;;;;;;;;5103354;28;20028;-74
2021/12/23 04:01:48;;;;;;;17.20;10.32;;;;;;;;;;5107405;28;20086;-74
2021/12/23 04:04:14;;;;;;;21.60;10.48;;;;;;;;;;5099027;28;20051;-74
2021/12/23 04:06:40;;;;;;;17.35;9.80;;;;;;;;;;5086369;28;20505;-75
2021/12/23 04:09:06;;;;;;;17.73;10.15;;;;;;;;;;5101647;28;20506;-74
2021/12/23 04:11:33;;;;;;;20.50;10.48;;;;;;;;;;5109595;28;20228;-74
2021/12/23 04:13:59;;;;;;;17.48;10.75;;;;;;;;;;5099467;28;20039;-74
2021/12/23 04:16:25;;;;;;;20.00;12.05;;;;;;;;;;5101004;27;20028;-74
2021/12/23 04:18:52;;;;;;;19.17;11.48;;;;;;;;;;5102664;27;20031;-74
2021/12/23 04:21:18;;;;;;;22.15;10.43;;;;;;;;;;5093600;28;20039;-75
2021/12/23 04:23:44;;;;;;;21.20;10.35;;;;;;;;;;5092785;28;20038;-74
2021/12/23 04:26:10;;;;;;;19.88;11.50;;;;;;;;;;5108360;28;20040;-74
2021/12/23 04:28:45;;;;;;;19.45;10.48;;;;;;;;;;5090757;28;20073;-74
2021/12/23 04:31:13;;;;;;;21.30;11.70;;;;;;;;;;5109955;28;20098;-74
2021/12/23 04:33:39;;;;;;;18.77;10.82;;;;;;;;;;5080248;28;20466;-73
2021/12/23 04:36:05;;;;;;;17.73;10.70;;;;;;;;;;5103826;27;20039;-74
2021/12/23 04:38:31;;;;;;;23.67;11.07;;;;;;;;;;5097053;28;20028;-73
2021/12/23 04:40:57;;;;;;;20.90;12.02;;;;;;;;;;5101628;28;20027;-75
2021/12/23 04:43:23;;;;;;;19.10;11.32;;;;;;;;;;5087175;28;20066;-74
2021/12/23 04:45:49;;;;;;;23.23;12.02;;;;;;;;;;5102152;28;20063;-74
2021/12/23 04:48:15;;;;;;;19.88;11.20;;;;;;;;;;5122163;27;20476;-74
2021/12/23 04:50:41;;;;;;;16.83;10.30;;;;;;;;;;5105122;28;20496;-74
2021/12/23 04:53:07;;;;;;;18.42;10.98;;;;;;;;;;5108087;27;20059;-74
2021/12/23 04:55:33;;;;;;;18.98;11.48;;;;;;;;;;5083917;28;20052;-74
2021/12/23 04:57:59;;;;;;;23.90;11.65;;;;;;;;;;5099000;28;20088;-74
2021/12/23 05:00:26;;;;;;;22.48;12.15;;;;;;;;;;5102732;28;20028;-74
2021/12/23 05:02:52;;;;;;;20.73;11.85;;;;;;;;;;5112247;28;20062;-74
2021/12/23 05:05:18;;;;;;;22.90;12.00;;;;;;;;;;5102165;28;20032;-74
2021/12/23 05:07:45;;;;;;;19.45;11.45;;;;;;;;;;5107529;28;20051;-74
2021/12/23 05:10:16;;;;;;;21.02;12.48;;;;;;;;;;5088666;27;20023;-74
2021/12/23 05:12:45;;;;;;;19.70;11.88;;;;;;;;;;5107268;28;20051;-74
2021/12/23 05:15:15;;;;;;;19.40;11.43;;;;;;;;;;5087777;28;20032;-74
2021/12/23 05:17:42;;;;;;;23.02;12.68;;;;;;;;;;5106076;28;20035;-74
2021/12/23 05:20:09;;;;;;;28.60;12.85;;;;;;;;;;5096737;28;20370;-75
2021/12/23 05:22:35;;;;;;;20.42;13.32;;;;;;;;;;5102407;28;20419;-74
2021/12/23 05:25:01;;;;;;;21.10;12.43;;;;;;;;;;5077793;28;20466;-74
2021/12/23 05:27:27;;;;;;;19.58;12.23;;;;;;;;;;5103328;27;20027;-73
2021/12/23 05:29:53;;;;;;;22.63;12.70;;;;;;;;;;5104333;28;20070;-74
2021/12/23 05:32:19;;;;;;;20.88;12.32;;;;;;;;;;5102822;27;20031;-73
2021/12/23 05:34:45;;;;;;;19.55;12.20;;;;;;;;;;5101664;28;20474;-74
2021/12/23 05:37:11;;;;;;;20.88;12.30;;;;;;;;;;5103894;28;20023;-74
2021/12/23 05:39:38;;;;;;;22.73;12.13;;;;;;;;;;5102108;27;20118;-73
2021/12/23 05:42:04;;;;;;;25.92;13.55;;;;;;;;;;5104158;28;20031;-74
2021/12/23 05:44:30;;;;;;;22.65;12.25;;;;;;;;;;5101973;27;20036;-74
2021/12/23 05:46:56;;;;;;;22.52;13.05;;;;;;;;;;5102454;28;20035;-74
2021/12/23 05:49:23;;;;;;;22.48;13.02;;;;;;;;;;5095150;28;20511;-74
2021/12/23 05:51:49;;;;;;;24.33;13.48;;;;;;;;;;5106107;27;20119;-73
2021/12/23 05:54:15;;;;;;;21.48;13.15;;;;;;;;;;5099191;28;20063;-73
2021/12/23 05:56:41;;;;;;;24.00;13.23;;;;;;;;;;5102166;28;20035;-75
2021/12/23 05:59:07;;;;;;;22.85;13.02;;;;;;;;;;5097723;28;20039;-75
2021/12/23 06:01:33;;;;;;;20.10;12.38;;;;;;;;;;5106120;27;20043;-74
2021/12/23 06:03:59;;;;;;;20.27;12.13;;;;;;;;;;5099757;28;20473;-75
2021/12/23 06:06:25;;;;;;;22.48;12.63;;;;;;;;;;5107044;28;20048;-74
2021/12/23 06:08:51;;;;;;;25.80;14.30;;;;;;;;;;5100859;28;20024;-75
2021/12/23 06:11:17;;;;;;;25.92;12.18;;;;;;;;;;5109460;28;20035;-75
2021/12/23 06:13:43;;;;;;;21.25;12.52;;;;;;;;;;5104882;28;20034;-75
2021/12/23 06:16:10;;;;;;;25.73;12.77;;;;;;;;;;5088484;28;20035;-74
2021/12/23 06:18:36;;;;;;;25.45;13.50;;;;;;;;;;5091984;28;20059;-74
2021/12/23 06:21:02;;;;;;;24.00;13.32;;;;;;;;;;5107987;28;20042;-75
2021/12/23 06:23:28;;;;;;;23.35;12.25;;;;;;;;;;5104417;28;20055;-74
2021/12/23 06:25:54;;;;;;;28.13;13.48;;;;;;;;;;5106919;28;20040;-74
2021/12/23 06:28:20;;;;;;;18.67;12.85;;;;;;;;;;5087959;28;20107;-75
2021/12/23 06:30:46;;;;;;;23.67;14.10;;;;;;;;;;5102815;28;20024;-75
2021/12/23 06:33:13;;;;;;;20.70;13.35;;;;;;;;;;5082749;28;20024;-75
2021/12/23 06:35:39;;;;;;;22.30;13.35;;;;;;;;;;5088891;28;20115;-76
2021/12/23 06:38:07;;;;;;;25.75;14.70;;;;;;;;;;5101674;28;20032;-75
2021/12/23 06:40:33;;;;;;;23.80;13.75;;;;;;;;;;5094818;28;20032;-74
2021/12/23 06:42:59;;;;;;;23.58;14.60;;;;;;;;;;5103783;28;20097;-74
2021/12/23 06:45:25;;;;;;;23.23;13.32;;;;;;;;;;5109611;28;20027;-74
2021/12/23 06:47:51;;;;;;;26.48;14.35;;;;;;;;;;5106539;28;20082;-73
2021/12/23 06:50:20;;;;;;;20.60;13.23;;;;;;;;;;5105506;28;20035;-74
2021/12/23 06:52:46;;;;;;;26.45;14.23;;;;;;;;;;5100510;28;20061;-74
2021/12/23 06:55:13;;;;;;;24.38;14.70;;;;;;;;;;5102990;28;20024;-74
2021/12/23 06:57:40;;;;;;;21.52;14.05;;;;;;;;;;5104328;28;20077;-73
2021/12/23 07:00:07;;;;;;;29.08;14.02;;;;;;;;;;5099654;28;20051;-74
2021/12/23 07:02:37;;;;;;;23.05;13.20;;;;;;;;;;5104446;28;20481;-73
2021/12/23 07:05:03;;;;;;;22.83;14.18;;;;;;;;;;5099794;28;20028;-74
2021/12/23 07:07:39;;;;;;;28.00;13.65;;;;;;;;;;5097413;28;20031;-74
2021/12/23 07:10:06;;;;;;;22.73;14.38;;;;;;;;;;5094819;28;20020;-73
2021/12/23 07:12:32;;;;;;;24.45;14.00;;;;;;;;;;5104919;27;20032;-73
2021/12/23 07:14:58;;;;;;;21.95;13.82;;;;;;;;;;5084495;28;20487;-74
2021/12/23 07:17:24;;;;;;;23.65;13.65;;;;;;;;;;5080800;28;20096;-75
2021/12/23 07:19:51;;;;;;;27.10;13.60;;;;;;;;;;5095062;28;20032;-75
2021/12/23 07:22:17;;;;;;;26.25;13.68;;;;;;;;;;5084831;28;20032;-76
2021/12/23 07:24:43;;;;;;;23.20;13.52;;;;;;;;;;5093770;28;20411;-75
2021/12/23 07:27:09;;;;;;;24.15;12.70;;;;;;;;;;5102133;28;20039;-76
2021/12/23 07:29:35;;;;;;;30.70;12.23;;;;;;;;;;5078172;28;20385;-76
2021/12/23 07:32:04;;;;;;;25.67;14.40;;;;;;;;;;5105485;28;20024;-76
2021/12/23 07:34:30;;;;;;;23.55;14.02;;;;;;;;;;5100434;28;20433;-76
2021/12/23 07:36:56;;;;;;;24.08;14.60;;;;;;;;;;5102158;28;20081;-75
2021/12/23 07:39:23;;;;;;;25.00;14.95;;;;;;;;;;5105581;28;20457;-75
2021/12/23 07:41:49;;;;;;;26.75;15.63;;;;;;;;;;5106654;28;20047;-74
2021/12/23 07:44:20;;;;;;;28.08;14.85;;;;;;;;;;5102549;28;20053;-73
2021/12/23 07:46:47;;;;;;;24.10;14.38;;;;;;;;;;5099091;28;20477;-73
2021/12/23 07:49:13;;;;;;;24.58;14.48;;;;;;;;;;5107602;28;20027;-73
2021/12/23 07:51:40;;;;;;;24.48;15.70;;;;;;;;;;5106464;28;20032;-73
2021/12/23 07:54:06;;;;;;;30.90;15.70;;;;;;;;;;5103842;28;20032;-74
2021/12/23 07:56:33;;;;;;;29.65;14.93;;;;;;;;;;5086473;28;20032;-73
2021/12/23 07:58:59;;;;;;;28.40;15.48;;;;;;;;;;5106160;28;20039;-77
2021/12/23 08:01:25;;;;;;;25.65;15.23;;;;;;;;;;5117154;28;20084;-76
2021/12/23 08:03:51;;;;;;;28.85;15.77;;;;;;;;;;5104961;28;20043;-76
2021/12/23 08:06:17;;;;;;;25.70;15.57;;;;;;;;;;5089317;28;20046;-76
2021/12/23 08:08:43;;;;;;;30.80;17.83;;;;;;;;;;5101797;28;20031;-76
2021/12/23 08:11:10;;;;;;;27.05;15.88;;;;;;;;;;5087243;28;20366;-76
2021/12/23 08:13:36;;;;;;;37.20;19.30;;;;;;;;;;5109909;28;20027;-78
2021/12/23 08:16:03;;;;;;;46.70;24.98;;;;;;;;;;5105685;28;20031;-76
2021/12/23 08:18:29;;;;;;;33.65;18.40;;;;;;;;;;5107737;28;20030;-77
2021/12/23 08:20:56;;;;;;;28.17;16.42;;;;;;;;;;5109263;28;20031;-76
2021/12/23 08:23:23;;;;;;;30.55;17.25;;;;;;;;;;5110364;28;20660;-76
2021/12/23 08:25:49;;;;;;;30.73;18.02;;;;;;;;;;5106499;28;20048;-76
2021/12/23 08:28:15;;;;;;;28.73;16.80;;;;;;;;;;5099531;28;20024;-76
2021/12/23 08:30:41;;;;;;;34.22;18.17;;;;;;;;;;5100234;28;20118;-76
2021/12/23 08:33:08;;;;;;;30.55;17.85;;;;;;;;;;5101139;27;20032;-76
2021/12/23 08:35:34;;;;;;;33.47;18.88;;;;;;;;;;5103988;27;20034;-75
2021/12/23 08:38:01;;;;;;;32.78;18.88;;;;;;;;;;5110989;28;20046;-76
2021/12/23 08:40:28;;;;;;;36.80;20.60;;;;;;;;;;5103379;28;20024;-75
2021/12/23 08:42:56;;;;;;;32.33;18.55;;;;;;;;;;5111843;28;20051;-78
2021/12/23 08:45:23;;;;;;;71.50;35.75;;;;;;;;;;5102951;28;20031;-74
2021/12/23 08:47:49;;;;;;;37.90;19.88;;;;;;;;;;5098749;28;20039;-75
2021/12/23 08:50:16;;;;;;;42.40;20.52;;;;;;;;;;5104050;28;20046;-75
2021/12/23 08:52:42;;;;;;;38.75;22.42;;;;;;;;;;5105794;27;20027;-76
2021/12/23 08:55:08;;;;;;;38.22;21.65;;;;;;;;;;5103529;28;20073;-76
2021/12/23 08:57:35;;;;;;;36.67;22.10;;;;;;;;;;5096969;28;20054;-76
2021/12/23 09:00:01;;;;;;;39.45;21.42;;;;;;;;;;5096236;28;20032;-76
2021/12/23 09:02:27;;;;;;;40.38;22.25;;;;;;;;;;5097865;27;20104;-76
2021/12/23 09:04:54;;;;;;;45.97;24.55;;;;;;;;;;5107367;28;20532;-76
2021/12/23 09:07:20;;;;;;;49.58;27.48;;;;;;;;;;5100720;28;20418;-77
2021/12/23 09:09:50;;;;;;;62.33;32.28;;;;;;;;;;5099864;28;20024;-76
2021/12/23 09:12:16;;;;;;;49.63;25.00;;;;;;;;;;5104058;28;20465;-76
2021/12/23 09:14:43;;;;;;;50.65;25.77;;;;;;;;;;5097309;28;20024;-76
2021/12/23 09:17:09;;;;;;;51.60;25.25;;;;;;;;;;5101007;28;20078;-77
2021/12/23 09:19:35;;;;;;;45.70;24.10;;;;;;;;;;5098848;28;20536;-76
2021/12/23 09:22:02;;;;;;;52.30;25.10;;;;;;;;;;5101673;28;20114;-76
2021/12/23 09:24:28;;;;;;;48.55;24.77;;;;;;;;;;5101723;28;20050;-74
2021/12/23 09:27:07;;;;;;;47.08;25.67;;;;;;;;;;5103913;28;20040;-76
2021/12/23 09:34:54;;;;;;;44.53;25.30;;;;;;;;;;5102058;28;20072;-77
2021/12/23 09:37:20;;;;;;;45.60;25.55;;;;;;;;;;5104122;28;20114;-78
2021/12/23 09:39:53;;;;;;;49.55;27.05;;;;;;;;;;5102582;28;20043;-77
2021/12/23 09:42:20;;;;;;;49.10;25.52;;;;;;;;;;5109201;27;20107;-77
2021/12/23 09:44:47;;;;;;;54.85;28.50;;;;;;;;;;5102644;28;20123;-76
2021/12/23 09:47:14;;;;;;;58.38;28.25;;;;;;;;;;5106859;28;20042;-77
2021/12/23 09:49:40;;;;;;;60.15;31.48;;;;;;;;;;5104038;28;20118;-78
2021/12/23 09:52:07;;;;;;;55.05;27.92;;;;;;;;;;5084963;28;20024;-78
2021/12/23 09:54:36;;;;;;;62.00;29.88;;;;;;;;;;5101798;28;20024;-78
2021/12/23 09:57:02;;;;;;;61.00;29.00;;;;;;;;;;5097194;28;20067;-78
2021/12/23 09:59:28;;;;;;;59.90;29.73;;;;;;;;;;5110332;27;20035;-76
2021/12/23 10:01:55;;;;;;;56.70;29.52;;;;;;;;;;5102513;28;20080;-76
2021/12/23 10:04:21;;;;;;;62.22;31.17;;;;;;;;;;5106719;28;20509;-77
2021/12/23 10:06:50;;;;;;;65.07;29.67;;;;;;;;;;5101743;28;20035;-75
2021/12/23 10:09:34;;;;;;;61.47;31.10;;;;;;;;;;5104826;27;20027;-79
2021/12/23 10:31:19;;;;;;;64.32;30.58;;;;;;;;;;5102096;28;20032;-77
2021/12/23 10:38:42;;;;;;;68.28;30.02;;;;;;;;;;5106166;28;20050;-78
2021/12/23 10:41:20;;;;;;;65.57;32.13;;;;;;;;;;5104706;28;20027;-76
2021/12/23 10:43:47;;;;;;;64.47;29.73;;;;;;;;;;5104283;28;20473;-76
2021/12/23 10:46:13;;;;;;;77.25;34.83;;;;;;;;;;5100383;28;20035;-76
2021/12/23 10:48:53;;;;;;;69.90;32.25;;;;;;;;;;5104653;28;20039;-77
2021/12/23 10:51:20;;;;;;;69.57;32.45;;;;;;;;;;5101234;28;20027;-77
2021/12/23 10:59:17;;;;;;;63.67;30.52;;;;;;;;;;5099219;28;20063;-77
2021/12/23 11:02:02;;;;;;;66.43;30.92;;;;;;;;;;5101267;28;20096;-77
2021/12/23 11:04:35;;;;;;;76.78;33.95;;;;;;;;;;5099986;28;20028;-76
2021/12/23 11:07:17;;;;;;;63.60;29.90;;;;;;;;;;5105320;28;20039;-78
2021/12/23 11:10:09;;;;;;;70.72;32.75;;;;;;;;;;5100622;28;20111;-77
2021/12/23 11:36:33;;;;;;;62.08;30.15;;;;;;;;;;5103577;28;20039;-75
2021/12/23 11:38:21;;;;;;;63.20;29.27;;;;;;;;;;5089888;28;20032;-76
2021/12/23 11:40:52;;;;;;;62.75;29.92;;;;;;;;;;5103300;28;20027;-75
2021/12/23 11:43:32;;;;;;;69.10;31.27;;;;;;;;;;5099228;28;20119;-77
2021/12/23 11:45:58;;;;;;;66.00;31.52;;;;;;;;;;5096034;28;20114;-76
2021/12/23 11:48:25;;;;;;;65.07;32.60;;;;;;;;;;5099014;28;20097;-79
2021/12/23 11:51:08;;;;;;;62.25;30.95;;;;;;;;;;5103620;28;20093;-75
2021/12/23 11:53:35;;;;;;;64.97;31.75;;;;;;;;;;5105513;28;20258;-76
2021/12/23 11:56:01;;;;;;;66.97;32.15;;;;;;;;;;5102380;28;20024;-74
2021/12/23 11:58:27;;;;;;;68.13;31.02;;;;;;;;;;5103739;28;20062;-74
2021/12/23 12:01:04;;;;;;;65.43;32.78;;;;;;;;;;5099346;28;20067;-75
2021/12/23 12:03:31;;;;;;;61.88;29.02;;;;;;;;;;5096301;28;20024;-75
2021/12/23 12:06:13;;;;;;;69.32;30.40;;;;;;;;;;5101013;28;20038;-75
2021/12/23 12:08:39;;;;;;;68.30;31.70;;;;;;;;;;5107480;28;20150;-75
2021/12/23 12:11:19;;;;;;;62.38;30.05;;;;;;;;;;5093455;28;20032;-74
2021/12/23 12:13:45;;;;;;;67.93;31.70;;;;;;;;;;5099919;28;20035;-75
2021/12/23 12:16:46;;;;;;;66.15;30.38;;;;;;;;;;5102783;28;20557;-74
2021/12/23 12:19:13;;;;;;;65.95;28.55;;;;;;;;;;5065309;28;20621;-75
2021/12/23 12:21:42;;;;;;;62.33;29.88;;;;;;;;;;5086536;28;20054;-74
2021/12/23 12:24:08;;;;;;;60.35;29.00;;;;;;;;;;5099697;28;20105;-75
2021/12/23 12:26:37;;;;;;;75.35;31.95;;;;;;;;;;5100619;28;20047;-75
2021/12/23 12:29:04;;;;;;;70.28;31.33;;;;;;;;;;5102240;28;20376;-75
2021/12/23 12:31:38;;;;;;;62.30;30.00;;;;;;;;;;5104977;28;20027;-75
2021/12/23 12:34:12;;;;;;;65.03;29.73;;;;;;;;;;5099053;28;20095;-76
2021/12/23 12:36:43;;;;;;;64.22;31.23;;;;;;;;;;5101646;28;20123;-73
2021/12/23 12:39:09;;;;;;;69.22;29.73;;;;;;;;;;5107520;28;20032;-75
2021/12/23 12:41:36;;;;;;;65.95;30.65;;;;;;;;;;5111361;28;20043;-73
2021/12/23 12:44:19;;;;;;;61.70;29.13;;;;;;;;;;5106565;28;21375;-73
2021/12/23 12:46:50;;;;;;;56.10;27.73;;;;;;;;;;5103139;28;20099;-72
2021/12/23 12:49:29;;;;;;;62.80;28.87;;;;;;;;;;5110481;28;20392;-73
2021/12/23 12:51:56;;;;;;;58.67;27.50;;;;;;;;;;5105207;28;20711;-75
2021/12/23 12:54:31;;;;;;;64.40;30.45;;;;;;;;;;5101067;28;20028;-76
2021/12/23 12:56:59;;;;;;;60.22;29.35;;;;;;;;;;5107833;28;20023;-78
2021/12/23 12:59:30;;;;;;;60.55;29.17;;;;;;;;;;5100797;28;20026;-76
2021/12/23 13:01:57;;;;;;;64.25;30.13;;;;;;;;;;5102077;28;20448;-74
2021/12/23 13:04:25;;;;;;;69.75;29.65;;;;;;;;;;5106992;28;20104;-73
2021/12/23 13:06:54;;;;;;;60.80;27.83;;;;;;;;;;5100540;28;20032;-75
2021/12/23 13:09:28;;;;;;;59.00;29.02;;;;;;;;;;5111172;28;20019;-76
2021/12/23 13:11:58;;;;;;;62.58;28.90;;;;;;;;;;5106504;28;20023;-77
2021/12/23 13:14:44;;;;;;;60.25;27.25;;;;;;;;;;5099155;27;20367;-74
2021/12/23 13:17:10;;;;;;;59.13;29.00;;;;;;;;;;5104764;28;20027;-74
2021/12/23 13:19:36;;;;;;;65.00;30.30;;;;;;;;;;5107133;28;20032;-75
2021/12/23 13:22:07;;;;;;;64.68;30.08;;;;;;;;;;5096280;28;20032;-77
2021/12/23 13:24:33;;;;;;;62.25;28.85;;;;;;;;;;5105243;28;20114;-73
2021/12/23 13:27:00;;;;;;;67.07;31.58;;;;;;;;;;5107381;28;20050;-75
2021/12/23 13:29:29;;;;;;;64.72;28.80;;;;;;;;;;5101294;28;20042;-75
2021/12/23 13:31:56;;;;;;;58.85;28.67;;;;;;;;;;5112317;28;20134;-75
2021/12/23 13:34:23;;;;;;;59.78;28.60;;;;;;;;;;5103253;28;20031;-76
2021/12/23 13:36:54;;;;;;;59.72;29.17;;;;;;;;;;5104268;28;20584;-78
2021/12/23 13:39:22;;;;;;;56.85;28.23;;;;;;;;;;5101788;28;20042;-78
2021/12/23 13:41:49;;;;;;;59.17;27.60;;;;;;;;;;5107350;28;20032;-77
2021/12/23 13:44:15;;;;;;;61.13;27.63;;;;;;;;;;5105491;28;20024;-79
2021/12/23 13:46:42;;;;;;;102.65;47.28;;;;;;;;;;5107497;28;20032;-78
2021/12/23 13:49:09;;;;;;;63.88;30.08;;;;;;;;;;5104360;28;20060;-78
2021/12/23 13:51:36;;;;;;;56.88;28.95;;;;;;;;;;5102546;28;20063;-76
2021/12/23 13:54:02;;;;;;;59.95;28.17;;;;;;;;;;5095490;28;20402;-75
2021/12/23 13:56:31;;;;;;;59.38;27.42;;;;;;;;;;5101359;28;20508;-76
2021/12/23 13:59:11;;;;;;;58.60;28.55;;;;;;;;;;5102952;28;20028;-75
2021/12/23 14:01:56;;;;;;;61.08;27.55;;;;;;;;;;5102387;28;20028;-74
2021/12/23 14:04:32;;;;;;;65.38;29.42;;;;;;;;;;5094408;28;20032;-74
2021/12/23 14:06:58;;;;;;;64.60;28.77;;;;;;;;;;5096976;28;20032;-76
2021/12/23 14:09:34;;;;;;;59.53;28.63;;;;;;;;;;5105407;28;20042;-76
2021/12/23 14:12:00;;;;;;;59.83;29.80;;;;;;;;;;5093057;28;20032;-76
2021/12/23 14:14:27;;;;;;;74.57;33.83;;;;;;;;;;5101495;28;20038;-75
2021/12/23 14:16:53;;;;;;;84.22;35.35;;;;;;;;;;5105781;28;20477;-77
2021/12/23 14:19:47;;;;;;;62.70;29.23;;;;;;;;;;5104968;28;20095;-75
2021/12/23 14:24:58;;;;;;;68.40;30.27;;;;;;;;;;5104285;28;20051;-75
2021/12/23 14:27:25;;;;;;;67.10;30.65;;;;;;;;;;5101797;28;20042;-75
2021/12/23 14:30:00;;;;;;;87.28;42.30;;;;;;;;;;5097863;28;20031;-76
2021/12/23 14:32:26;;;;;;;59.03;28.38;;;;;;;;;;5085262;28;20154;-76
2021/12/23 14:34:52;;;;;;;64.72;28.20;;;;;;;;;;5105608;28;20035;-76
2021/12/23 14:37:18;;;;;;;63.63;28.85;;;;;;;;;;5101751;28;20085;-76
2021/12/23 14:39:45;;;;;;;57.70;27.30;;;;;;;;;;5100138;28;20098;-76
2021/12/23 14:42:12;;;;;;;60.88;27.45;;;;;;;;;;5103797;28;20513;-77
2021/12/23 14:44:39;;;;;;;59.10;28.60;;;;;;;;;;5102298;28;20098;-76
2021/12/23 14:47:23;;;;;;;56.97;28.85;;;;;;;;;;5099152;28;20038;-77
2021/12/23 14:50:15;;;;;;;65.32;29.00;;;;;;;;;;5106262;28;20028;-77
2021/12/23 14:52:56;;;;;;;59.03;29.02;;;;;;;;;;5097037;28;20484;-77
2021/12/23 14:55:25;;;;;;;78.40;33.33;;;;;;;;;;5101088;28;20030;-77
2021/12/23 14:57:56;;;;;;;80.50;35.03;;;;;;;;;;5095495;28;20160;-76
2021/12/23 15:00:28;;;;;;;68.53;29.27;;;;;;;;;;5101864;28;20029;-77
2021/12/23 15:03:01;;;;;;;61.83;29.73;;;;;;;;;;5098991;28;20488;-77
2021/12/23 15:05:28;;;;;;;58.78;28.45;;;;;;;;;;5097449;28;20115;-79
2021/12/23 15:07:59;;;;;;;62.97;27.83;;;;;;;;;;5100640;28;20032;-78
2021/12/23 15:10:28;;;;;;;77.85;39.03;;;;;;;;;;5100948;28;20028;-78
2021/12/23 15:12:54;;;;;;;62.38;28.77;;;;;;;;;;5100712;28;20039;-78
2021/12/23 15:15:20;;;;;;;62.53;28.98;;;;;;;;;;5098799;28;20012;-78
2021/12/23 15:17:52;;;;;;;66.55;30.13;;;;;;;;;;5100288;28;20535;-78
2021/12/23 15:20:30;;;;;;;64.68;30.30;;;;;;;;;;5107439;28;20139;-77
2021/12/23 15:23:00;;;;;;;68.75;29.05;;;;;;;;;;5101175;28;20118;-77
2021/12/23 15:25:37;;;;;;;64.68;28.92;;;;;;;;;;5108645;28;20123;-77
2021/12/23 15:28:04;;;;;;;65.95;30.48;;;;;;;;;;5098384;28;20044;-77
2021/12/23 15:30:32;;;;;;;80.03;30.33;;;;;;;;;;5095151;28;20045;-77
2021/12/23 15:32:58;;;;;;;69.00;29.13;;;;;;;;;;5099439;28;20020;-77